createdAt,value
2022-08-05T00:04:19.168Z,21.35
2022-08-05T00:09:41.087Z,21.15
2022-08-05T00:15:54.404Z,21.13
2022-08-05T00:20:50.471Z,21.06
2022-08-05T00:26:12.804Z,20.96
2022-08-05T00:31:52.916Z,20.88
2022-08-05T00:37:16.489Z,20.80
2022-08-05T00:42:39.126Z,20.83
2022-08-05T00:48:05.798Z,20.83
2022-08-05T00:54:01.188Z,20.79
2022-08-05T00:59:09.815Z,20.80
2022-08-05T01:04:31.681Z,20.64
2022-08-05T01:09:55.497Z,20.63
2022-08-05T01:15:36.232Z,20.61
2022-08-05T01:21:11.964Z,20.50
2022-08-05T01:26:49.988Z,20.51
2022-08-05T01:32:18.541Z,20.52
2022-08-05T01:37:50.348Z,20.51
2022-08-05T01:43:22.441Z,20.49
2022-08-05T01:48:49.762Z,20.54
2022-08-05T01:54:14.118Z,20.53
2022-08-05T01:59:42.201Z,20.42
2022-08-05T02:05:12.350Z,20.39
2022-08-05T02:10:43.604Z,20.32
2022-08-05T02:16:16.404Z,20.35
2022-08-05T02:21:49.225Z,20.30
2022-08-05T02:27:12.696Z,20.33
2022-08-05T02:32:36.560Z,20.22
2022-08-05T02:38:02.563Z,20.33
2022-08-05T02:43:26.353Z,20.29
2022-08-05T02:48:49.107Z,20.27
2022-08-05T02:54:34.856Z,20.23
2022-08-05T02:59:56.807Z,20.19
2022-08-05T03:05:21.622Z,20.27
2022-08-05T03:11:57.640Z,20.22
2022-08-05T03:16:43.405Z,20.32
2022-08-05T03:22:16.570Z,20.30
2022-08-05T03:27:59.320Z,20.79
2022-08-05T03:33:22.782Z,21.64
2022-08-05T03:38:54.019Z,22.12
2022-08-05T03:44:19.793Z,22.76
2022-08-05T03:49:51.336Z,23.41
2022-08-05T03:56:04.810Z,24.00
2022-08-05T04:01:06.992Z,24.83
2022-08-05T04:06:29.702Z,25.20
2022-08-05T04:11:52.558Z,26.38
2022-08-05T04:17:15.100Z,26.55
2022-08-05T04:22:36.907Z,27.00
2022-08-05T04:28:00.623Z,26.51
2022-08-05T04:34:19.273Z,27.63
2022-08-05T04:39:07.848Z,28.13
2022-08-05T04:44:30.698Z,28.38
2022-08-05T04:50:02.521Z,27.50
2022-08-05T04:56:14.587Z,27.73
2022-08-05T05:01:14.678Z,28.60
2022-08-05T05:06:57.645Z,28.16
2022-08-05T05:12:19.638Z,28.18
2022-08-05T05:17:56.432Z,27.93
2022-08-05T05:23:19.890Z,26.69
2022-08-05T05:28:42.793Z,28.28
2022-08-05T05:34:07.019Z,29.67
2022-08-05T05:39:31.584Z,28.99
2022-08-05T05:44:59.528Z,30.33
2022-08-05T05:50:21.386Z,29.91
2022-08-05T05:55:51.673Z,32.70
2022-08-05T06:01:23.472Z,32.36
2022-08-05T06:06:47.788Z,32.43
2022-08-05T06:12:12.163Z,32.86
2022-08-05T06:17:53.125Z,34.10
2022-08-05T06:23:15.556Z,34.40
2022-08-05T06:28:37.366Z,34.98
2022-08-05T06:34:06.161Z,35.11
2022-08-05T06:39:30.053Z,35.60
2022-08-05T06:44:53.110Z,35.22
2022-08-05T06:50:17.336Z,36.17
2022-08-05T06:55:42.001Z,36.81
2022-08-05T07:01:06.190Z,38.13
2022-08-05T07:06:28.511Z,38.37
2022-08-05T07:11:51.434Z,39.26
2022-08-05T07:23:29.714Z,39.13
2022-08-05T07:28:52.088Z,39.52
2022-08-05T07:34:15.669Z,38.83
2022-08-05T07:40:04.464Z,38.41
2022-08-05T07:45:31.318Z,41.33
2022-08-05T07:51:23.629Z,41.01
2022-08-05T07:57:02.021Z,40.56
2022-08-05T08:03:13.774Z,41.85
2022-08-05T08:08:16.872Z,41.67
2022-08-05T08:13:42.957Z,41.86
2022-08-05T08:20:20.958Z,41.46
2022-08-05T08:25:16.112Z,40.37
2022-08-05T08:30:47.921Z,41.18
2022-08-05T08:36:38.990Z,40.10
2022-08-05T08:41:59.637Z,40.60
2022-08-05T08:48:06.980Z,40.08
2022-08-05T08:53:12.578Z,41.11
2022-08-05T08:58:44.036Z,41.69
2022-08-05T09:04:10.809Z,41.54
2022-08-05T09:09:38.009Z,40.35
2022-08-05T09:15:06.257Z,39.75
2022-08-05T09:20:37.318Z,38.60
2022-08-05T09:26:20.474Z,36.20
2022-08-05T09:32:41.416Z,35.19
2022-08-05T09:38:17.266Z,35.37
2022-08-05T09:43:26.147Z,34.60
2022-08-05T09:49:07.264Z,33.40
2022-08-05T09:54:30.746Z,33.84
2022-08-05T09:59:57.964Z,33.25
2022-08-05T10:05:23.959Z,32.75
2022-08-05T10:10:54.682Z,33.40
2022-08-05T10:16:37.915Z,32.99
2022-08-05T10:22:04.107Z,33.02
2022-08-05T10:28:12.769Z,32.49
2022-08-05T10:33:14.646Z,32.30
2022-08-05T10:38:39.098Z,31.40
2022-08-05T10:44:11.346Z,31.58
2022-08-05T10:49:48.730Z,31.36
2022-08-05T10:55:15.992Z,32.13
2022-08-05T11:00:46.246Z,31.91
2022-08-05T11:06:15.651Z,31.94
2022-08-05T11:11:44.267Z,31.51
2022-08-05T11:17:57.745Z,31.69
2022-08-05T11:24:02.385Z,31.08
2022-08-05T11:29:39.003Z,31.25
2022-08-05T11:35:00.898Z,31.50
2022-08-05T11:41:00.853Z,31.61
2022-08-05T11:46:33.407Z,31.62
2022-08-05T11:51:57.314Z,31.59
2022-08-05T11:57:24.966Z,31.72
2022-08-05T12:02:47.620Z,31.39
2022-08-05T12:08:11.703Z,31.52
2022-08-05T12:13:49.472Z,31.95
2022-08-05T12:20:27.152Z,31.41
2022-08-05T12:24:54.370Z,31.70
2022-08-05T12:30:16.153Z,31.65
2022-08-05T12:35:39.908Z,31.96
2022-08-05T12:41:13.230Z,32.02
2022-08-05T12:46:36.827Z,31.76
2022-08-05T12:52:14.425Z,31.64
2022-08-05T12:58:49.001Z,31.24
2022-08-05T13:03:24.406Z,31.64
2022-08-05T13:08:53.929Z,31.69
2022-08-05T13:14:24.801Z,31.71
2022-08-05T13:20:09.453Z,31.86
2022-08-05T13:25:52.192Z,32.11
2022-08-05T13:31:15.026Z,31.82
2022-08-05T13:36:37.642Z,32.08
2022-08-05T13:42:01.259Z,32.01
2022-08-05T13:47:34.614Z,31.85
2022-08-05T13:52:57.244Z,31.69
2022-08-05T13:58:23.267Z,31.81
2022-08-05T14:03:52.853Z,31.89
2022-08-05T14:09:14.697Z,31.80
2022-08-05T14:14:38.078Z,31.83
2022-08-05T14:20:04.736Z,31.89
2022-08-05T14:25:30.296Z,31.64
2022-08-05T14:30:52.283Z,31.89
2022-08-05T14:36:15.444Z,31.89
2022-08-05T14:41:37.634Z,32.09
2022-08-05T14:47:10.242Z,32.08
2022-08-05T14:52:51.880Z,31.97
2022-08-05T14:58:14.200Z,31.89
2022-08-05T15:03:39.086Z,31.89
2022-08-05T15:09:03.607Z,31.90
2022-08-05T15:14:35.794Z,31.88
2022-08-05T15:20:04.805Z,32.07
2022-08-05T15:25:40.858Z,31.85
2022-08-05T15:31:08.469Z,31.85
2022-08-05T15:36:30.789Z,31.77
2022-08-05T15:41:58.201Z,31.74
2022-08-05T15:47:22.247Z,31.92
2022-08-05T15:52:54.659Z,31.74
2022-08-05T15:58:17.440Z,31.72
2022-08-05T16:03:42.700Z,31.64
2022-08-05T16:09:04.553Z,31.55
2022-08-05T16:14:26.396Z,31.52
2022-08-05T16:20:04.904Z,31.59
2022-08-05T16:25:33.915Z,31.75
2022-08-05T16:30:56.521Z,31.61
2022-08-05T16:36:20.405Z,31.62
2022-08-05T16:42:27.627Z,31.57
2022-08-05T16:47:36.016Z,31.48
2022-08-05T16:52:58.307Z,31.43
2022-08-05T16:58:23.494Z,31.31
2022-08-05T17:03:47.197Z,31.42
2022-08-05T17:09:10.336Z,31.31
2022-08-05T17:14:36.942Z,31.35
2022-08-05T17:20:07.391Z,31.23
2022-08-05T17:25:39.645Z,31.13
2022-08-05T17:31:08.477Z,31.04
2022-08-05T17:36:44.012Z,30.97
2022-08-05T17:42:18.348Z,30.90
2022-08-05T17:47:42.344Z,30.81
2022-08-05T17:53:05.529Z,30.74
2022-08-05T17:58:32.418Z,30.62
2022-08-05T18:04:04.207Z,30.56
2022-08-05T18:09:28.436Z,30.44
2022-08-05T18:15:09.936Z,30.22
2022-08-05T18:20:32.612Z,30.04
2022-08-05T18:25:57.746Z,30.05
2022-08-05T18:31:21.642Z,29.98
2022-08-05T18:36:43.616Z,29.99
2022-08-05T18:42:10.838Z,29.93
2022-08-05T18:47:33.944Z,29.80
2022-08-05T18:52:55.817Z,29.51
2022-08-05T18:58:17.633Z,29.40
2022-08-05T19:03:53.482Z,29.26
2022-08-05T19:09:17.637Z,29.06
2022-08-05T19:15:00.741Z,28.84
2022-08-05T19:20:21.246Z,28.83
2022-08-05T19:25:45.501Z,28.68
2022-08-05T19:31:07.657Z,28.69
2022-08-05T19:36:29.662Z,28.59
2022-08-05T19:42:07.351Z,28.54
2022-08-05T19:47:30.965Z,28.36
2022-08-05T19:52:52.762Z,28.30
2022-08-05T19:58:28.367Z,28.15
2022-08-05T20:03:50.853Z,28.14
2022-08-05T20:09:14.338Z,27.94
2022-08-05T20:14:36.338Z,27.89
2022-08-05T20:19:58.230Z,27.75
2022-08-05T20:25:20.135Z,27.74
2022-08-05T20:30:45.147Z,27.57
2022-08-05T20:36:10.013Z,27.54
2022-08-05T20:41:44.222Z,27.24
2022-08-05T20:47:07.576Z,27.11
2022-08-05T20:52:30.415Z,27.01
2022-08-05T20:57:53.881Z,26.91
2022-08-05T21:03:20.518Z,26.87
2022-08-05T21:08:43.979Z,26.63
2022-08-05T21:14:06.067Z,26.64
2022-08-05T21:19:28.784Z,26.57
2022-08-05T21:25:08.717Z,26.38
2022-08-05T21:30:31.755Z,26.20
2022-08-05T21:35:58.606Z,26.03
2022-08-05T21:41:20.993Z,25.91
2022-08-05T21:46:42.857Z,25.83
2022-08-05T21:52:16.292Z,25.71
2022-08-05T21:57:45.138Z,25.57
2022-08-05T22:03:09.928Z,25.39
2022-08-05T22:08:32.403Z,25.48
2022-08-05T22:14:34.516Z,25.36
2022-08-05T22:20:00.540Z,25.35
2022-08-05T22:25:23.961Z,25.30
2022-08-05T22:30:56.231Z,25.23
2022-08-05T22:36:24.190Z,25.18
2022-08-05T22:42:10.386Z,25.13
2022-08-05T22:47:29.613Z,25.08
2022-08-05T22:52:53.772Z,25.04
2022-08-05T22:58:15.598Z,24.98
2022-08-05T23:03:59.085Z,25.01
2022-08-05T23:09:27.882Z,24.96
2022-08-05T23:15:08.840Z,24.97
2022-08-05T23:20:33.852Z,24.76
2022-08-05T23:25:59.514Z,24.78
2022-08-05T23:31:21.684Z,24.67
2022-08-05T23:36:45.029Z,24.61
2022-08-05T23:42:08.668Z,24.48
2022-08-05T23:47:36.479Z,24.36
2022-08-05T23:53:22.843Z,24.31
2022-08-05T23:58:44.920Z,24.21
